GEC8231 KLAX-KSEA
Flight info
| Callsign | GEC8231 |
|---|---|
| Flight time | N/A |
| Altitude | 34000 |
| Route | LADYJ4 CSTRO SHIMR LKV HAWKZ8 |
| Aircraft | B77L/H-SDE1E2E3FGHIJ2J3J4J5M1RWXY/LB1D1 |
Departure
| Time | 2026-05-07 03:41 |
|---|---|
| Airport | Los Angeles International Airport (KLAX) |
Arrival
| Time | N/A |
|---|---|
| Airport | Seattle–Tacoma International Airport (KSEA) |
| Time | Latitude | Longitude | Altitude | Speed | Heading |
|---|---|---|---|---|---|
| 2026-05-07 03:00 | 33.93530 | -118.38214 | 91 ft | 0 kts | 281° |
| 2026-05-07 03:32 | 33.93530 | -118.38213 | 101 ft | 2 kts | 281° |
| 2026-05-07 03:32 | 33.93525 | -118.38183 | 100 ft | 4 kts | 281° |
| 2026-05-07 03:32 | 33.93521 | -118.38158 | 101 ft | 4 kts | 283° |
| 2026-05-07 03:32 | 33.93512 | -118.38131 | 100 ft | 4 kts | 333° |
| 2026-05-07 03:33 | 33.93490 | -118.38127 | 99 ft | 4 kts | 0° |
| 2026-05-07 03:33 | 33.93472 | -118.38127 | 99 ft | 0 kts | 0° |
| 2026-05-07 03:38 | 33.93491 | -118.38129 | 101 ft | 5 kts | 355° |
| 2026-05-07 03:38 | 33.93526 | -118.38132 | 101 ft | 5 kts | 357° |
| 2026-05-07 03:38 | 33.93562 | -118.38133 | 102 ft | 5 kts | 355° |
| 2026-05-07 03:39 | 33.93594 | -118.38148 | 103 ft | 5 kts | 324° |
| 2026-05-07 03:39 | 33.93612 | -118.38185 | 105 ft | 5 kts | 291° |
| 2026-05-07 03:39 | 33.93617 | -118.38227 | 104 ft | 5 kts | 281° |
| 2026-05-07 03:39 | 33.93638 | -118.38261 | 107 ft | 5 kts | 323° |
| 2026-05-07 03:40 | 33.93671 | -118.38277 | 110 ft | 5 kts | 339° |
| 2026-05-07 03:40 | 33.93702 | -118.38296 | 111 ft | 5 kts | 328° |
| 2026-05-07 03:40 | 33.93724 | -118.38330 | 113 ft | 5 kts | 293° |
| 2026-05-07 03:40 | 33.93725 | -118.38403 | 111 ft | 19 kts | 263° |
| 2026-05-07 03:41 | 33.93682 | -118.38815 | 111 ft | 84 kts | 263° |
| 2026-05-07 03:41 | 33.93583 | -118.39773 | 114 ft | 143 kts | 263° |
| 2026-05-07 03:41 | 33.93440 | -118.41101 | 385 ft | 159 kts | 261° |
| 2026-05-07 03:41 | 33.93285 | -118.42415 | 967 ft | 163 kts | 263° |
| 2026-05-07 03:42 | 33.93123 | -118.43799 | 1452 ft | 172 kts | 260° |
| 2026-05-07 03:42 | 33.92933 | -118.45266 | 1936 ft | 183 kts | 263° |
| 2026-05-07 03:42 | 33.92725 | -118.46890 | 2156 ft | 210 kts | 262° |
| 2026-05-07 03:42 | 33.92498 | -118.48733 | 2441 ft | 233 kts | 262° |
| 2026-05-07 03:43 | 33.92263 | -118.50716 | 3011 ft | 245 kts | 262° |
| 2026-05-07 03:43 | 33.92017 | -118.52817 | 3320 ft | 263 kts | 262° |
| 2026-05-07 03:43 | 33.91767 | -118.54998 | 3148 ft | 260 kts | 262° |
| 2026-05-07 03:43 | 33.91522 | -118.57129 | 3087 ft | 256 kts | 262° |
| 2026-05-07 03:44 | 33.91278 | -118.59273 | 3084 ft | 257 kts | 262° |
| 2026-05-07 03:44 | 33.91037 | -118.61397 | 3369 ft | 257 kts | 262° |
| 2026-05-07 03:44 | 33.90789 | -118.63554 | 3726 ft | 263 kts | 263° |
| 2026-05-07 03:44 | 33.90525 | -118.65751 | 4078 ft | 266 kts | 264° |
| 2026-05-07 03:45 | 33.90617 | -118.67916 | 4561 ft | 268 kts | 292° |
| 2026-05-07 03:45 | 33.91726 | -118.69670 | 5383 ft | 262 kts | 327° |
| 2026-05-07 03:45 | 33.93350 | -118.70606 | 6101 ft | 265 kts | 342° |
| 2026-05-07 03:45 | 33.95121 | -118.71265 | 6848 ft | 268 kts | 345° |
| 2026-05-07 03:46 | 33.96927 | -118.71883 | 7590 ft | 271 kts | 346° |
| 2026-05-07 03:46 | 33.98772 | -118.72500 | 8377 ft | 273 kts | 347° |
| 2026-05-07 03:46 | 34.00612 | -118.73114 | 9152 ft | 275 kts | 347° |
| 2026-05-07 03:46 | 34.02463 | -118.73742 | 9927 ft | 277 kts | 345° |
| 2026-05-07 03:47 | 34.04281 | -118.74475 | 10432 ft | 283 kts | 346° |
| 2026-05-07 03:47 | 34.06175 | -118.75198 | 11100 ft | 287 kts | 344° |
| 2026-05-07 03:47 | 34.08071 | -118.75994 | 11872 ft | 291 kts | 343° |
| 2026-05-07 03:47 | 34.09994 | -118.76816 | 12700 ft | 294 kts | 344° |
| 2026-05-07 03:48 | 34.11968 | -118.77505 | 13451 ft | 298 kts | 349° |
| 2026-05-07 03:48 | 34.13999 | -118.78083 | 14202 ft | 302 kts | 349° |
| 2026-05-07 03:48 | 34.16053 | -118.78667 | 14965 ft | 304 kts | 349° |
| 2026-05-07 03:48 | 34.18116 | -118.79282 | 15735 ft | 307 kts | 348° |
| 2026-05-07 03:49 | 34.20195 | -118.79930 | 16477 ft | 310 kts | 348° |
| 2026-05-07 03:49 | 34.22299 | -118.80609 | 17156 ft | 317 kts | 347° |
| 2026-05-07 03:49 | 34.24515 | -118.81338 | 17424 ft | 338 kts | 347° |
| 2026-05-07 03:49 | 34.26859 | -118.82121 | 17598 ft | 360 kts | 347° |
| 2026-05-07 03:50 | 34.29317 | -118.82952 | 17771 ft | 382 kts | 346° |
| 2026-05-07 03:50 | 34.31946 | -118.83850 | 17938 ft | 403 kts | 346° |
| 2026-05-07 03:50 | 34.34703 | -118.84799 | 18196 ft | 419 kts | 346° |
| 2026-05-07 03:50 | 34.37543 | -118.85783 | 18634 ft | 429 kts | 346° |
| 2026-05-07 03:51 | 34.40427 | -118.86787 | 19212 ft | 433 kts | 346° |
| 2026-05-07 03:51 | 34.43332 | -118.87800 | 19876 ft | 435 kts | 346° |
| 2026-05-07 03:51 | 34.46258 | -118.88819 | 20527 ft | 438 kts | 346° |
| 2026-05-07 03:51 | 34.49197 | -118.89844 | 21156 ft | 441 kts | 346° |
| 2026-05-07 03:52 | 34.52158 | -118.90876 | 21738 ft | 445 kts | 346° |
| 2026-05-07 03:52 | 34.55153 | -118.91919 | 22273 ft | 450 kts | 346° |
| 2026-05-07 03:52 | 34.58179 | -118.92974 | 22759 ft | 455 kts | 346° |
| 2026-05-07 03:52 | 34.61238 | -118.94040 | 23243 ft | 459 kts | 346° |
| 2026-05-07 03:53 | 34.64314 | -118.95114 | 23841 ft | 461 kts | 346° |
| 2026-05-07 03:53 | 34.67411 | -118.96197 | 24277 ft | 465 kts | 346° |
| 2026-05-07 03:53 | 34.70527 | -118.97287 | 24727 ft | 468 kts | 346° |
| 2026-05-07 03:53 | 34.73667 | -118.98386 | 25160 ft | 471 kts | 346° |
| 2026-05-07 03:54 | 34.76832 | -118.99494 | 25577 ft | 475 kts | 346° |
| 2026-05-07 03:54 | 34.80015 | -119.00610 | 25996 ft | 477 kts | 346° |
| 2026-05-07 03:54 | 34.83215 | -119.01732 | 26380 ft | 481 kts | 345° |
| 2026-05-07 03:54 | 34.86435 | -119.02862 | 26772 ft | 483 kts | 346° |
| 2026-05-07 03:55 | 34.89655 | -119.03995 | 27354 ft | 481 kts | 345° |
| 2026-05-07 03:55 | 34.92861 | -119.05124 | 28033 ft | 477 kts | 345° |
| 2026-05-07 03:55 | 34.96043 | -119.06243 | 28693 ft | 474 kts | 345° |
| 2026-05-07 03:55 | 34.98142 | -119.06982 | 29078 ft | 474 kts | 345° |
| 2026-05-07 03:56 | 35.01305 | -119.08096 | 29703 ft | 473 kts | 345° |
| 2026-05-07 03:56 | 35.04460 | -119.09208 | 30313 ft | 471 kts | 345° |
| 2026-05-07 03:56 | 35.07595 | -119.10315 | 30846 ft | 468 kts | 345° |
| 2026-05-07 03:56 | 35.10724 | -119.11420 | 31366 ft | 467 kts | 345° |
| 2026-05-07 03:57 | 35.13838 | -119.12521 | 31837 ft | 466 kts | 345° |
| 2026-05-07 03:57 | 35.16946 | -119.13620 | 32307 ft | 464 kts | 345° |
| 2026-05-07 03:57 | 35.20045 | -119.14717 | 32778 ft | 463 kts | 345° |
| 2026-05-07 03:57 | 35.23133 | -119.15811 | 33231 ft | 462 kts | 345° |
| 2026-05-07 03:58 | 35.26214 | -119.16903 | 33683 ft | 461 kts | 345° |
| 2026-05-07 03:58 | 35.29287 | -119.17993 | 34112 ft | 459 kts | 345° |
| 2026-05-07 03:58 | 35.32355 | -119.19082 | 34479 ft | 458 kts | 345° |
| 2026-05-07 03:58 | 35.35420 | -119.20170 | 34840 ft | 457 kts | 345° |
| 2026-05-07 03:59 | 35.38473 | -119.21253 | 35186 ft | 456 kts | 345° |
| 2026-05-07 03:59 | 35.41515 | -119.22335 | 35560 ft | 455 kts | 345° |
| 2026-05-07 03:59 | 35.44557 | -119.23420 | 35895 ft | 454 kts | 345° |
| 2026-05-07 03:59 | 35.47605 | -119.24450 | 36004 ft | 458 kts | 347° |
| 2026-05-07 04:00 | 35.50707 | -119.25397 | 36071 ft | 459 kts | 348° |
| 2026-05-07 04:00 | 35.56983 | -119.27215 | 36102 ft | 467 kts | 348° |
| 2026-05-07 04:01 | 35.63335 | -119.29064 | 36101 ft | 469 kts | 348° |
| 2026-05-07 04:01 | 35.69678 | -119.30949 | 36100 ft | 469 kts | 347° |
| 2026-05-07 04:02 | 35.76005 | -119.32848 | 36103 ft | 468 kts | 347° |
| 2026-05-07 04:02 | 35.82318 | -119.34748 | 36096 ft | 466 kts | 347° |
| 2026-05-07 04:03 | 35.88608 | -119.36643 | 36082 ft | 465 kts | 347° |
| 2026-05-07 04:03 | 35.94884 | -119.38535 | 36086 ft | 463 kts | 347° |
| 2026-05-07 04:04 | 36.01144 | -119.40425 | 36088 ft | 463 kts | 347° |
| 2026-05-07 04:04 | 36.07392 | -119.42315 | 36094 ft | 462 kts | 347° |
| 2026-05-07 04:05 | 36.13636 | -119.44208 | 36095 ft | 462 kts | 347° |
| 2026-05-07 04:05 | 36.19881 | -119.46103 | 36092 ft | 462 kts | 347° |
| 2026-05-07 04:06 | 36.26129 | -119.48002 | 36105 ft | 463 kts | 347° |
| 2026-05-07 04:06 | 36.32388 | -119.49908 | 36106 ft | 463 kts | 347° |
| 2026-05-07 04:07 | 36.38662 | -119.51821 | 36107 ft | 464 kts | 347° |
| 2026-05-07 04:07 | 36.44939 | -119.53739 | 36106 ft | 465 kts | 346° |
| 2026-05-07 04:08 | 36.51221 | -119.55662 | 36099 ft | 465 kts | 346° |
| 2026-05-07 04:08 | 36.57475 | -119.57579 | 36096 ft | 466 kts | 346° |
| 2026-05-07 04:09 | 36.63779 | -119.59514 | 36101 ft | 466 kts | 346° |
| 2026-05-07 04:09 | 36.70083 | -119.61453 | 36110 ft | 466 kts | 346° |
| 2026-05-07 04:10 | 36.76386 | -119.63395 | 36109 ft | 466 kts | 346° |
| 2026-05-07 04:10 | 36.81621 | -119.65010 | 36111 ft | 466 kts | 346° |